createdAt,value
2022-08-29T00:01:21.987Z,100397.72
2022-08-29T00:03:50.745Z,100387.25
2022-08-29T00:06:18.582Z,100403.31
2022-08-29T00:08:46.665Z,100400.91
2022-08-29T00:11:14.327Z,100402.13
2022-08-29T00:13:41.924Z,100395.47
2022-08-29T00:16:09.672Z,100400.34
2022-08-29T00:18:37.299Z,100401.72
2022-08-29T00:21:04.990Z,100393.59
2022-08-29T00:23:32.598Z,100401.41
2022-08-29T00:26:01.113Z,100402.06
2022-08-29T00:28:28.819Z,100404.25
2022-08-29T00:30:56.616Z,100411.91
2022-08-29T00:33:24.353Z,100408.75
2022-08-29T00:35:52.045Z,100407.75
2022-08-29T00:38:19.793Z,100405.97
2022-08-29T00:40:51.328Z,100408.63
2022-08-29T00:43:19.726Z,100402.19
2022-08-29T00:45:47.384Z,100401.06
2022-08-29T00:48:15.352Z,100399.25
2022-08-29T00:50:43.164Z,100396.84
2022-08-29T00:53:10.837Z,100395.03
2022-08-29T00:55:38.861Z,100405.00
2022-08-29T00:58:06.617Z,100393.63
2022-08-29T01:00:34.342Z,100397.75
2022-08-29T01:03:03.022Z,100392.91
2022-08-29T01:05:30.697Z,100401.03
2022-08-29T01:07:58.417Z,100406.50
2022-08-29T01:10:44.786Z,100394.00
2022-08-29T01:13:12.610Z,100394.97
2022-08-29T01:15:40.218Z,100399.34
2022-08-29T01:18:07.999Z,100393.16
2022-08-29T01:20:36.160Z,100389.66
2022-08-29T01:23:03.766Z,100405.66
2022-08-29T01:25:31.550Z,100398.75
2022-08-29T01:27:59.151Z,100404.19
2022-08-29T01:30:27.193Z,100400.56
2022-08-29T01:32:57.667Z,100401.41
2022-08-29T01:35:25.350Z,100404.09
2022-08-29T01:37:52.991Z,100408.44
2022-08-29T01:40:21.683Z,100404.09
2022-08-29T01:42:49.351Z,100406.59
2022-08-29T01:45:17.019Z,100398.47
2022-08-29T01:47:44.686Z,100413.41
2022-08-29T01:50:13.088Z,100402.47
2022-08-29T01:52:40.779Z,100408.44
2022-08-29T01:55:08.747Z,100404.66
2022-08-29T01:57:36.477Z,100419.72
2022-08-29T02:00:05.940Z,100415.25
2022-08-29T02:02:34.345Z,100418.28
2022-08-29T02:05:02.064Z,100416.34
2022-08-29T02:07:29.801Z,100416.34
2022-08-29T02:09:57.886Z,100414.50
2022-08-29T02:12:26.463Z,100416.09
2022-08-29T02:14:54.086Z,100419.34
2022-08-29T02:17:21.875Z,100418.84
2022-08-29T02:19:50.052Z,100414.84
2022-08-29T02:22:18.535Z,100412.53
2022-08-29T02:24:46.134Z,100413.84
2022-08-29T02:27:13.747Z,100415.28
2022-08-29T02:29:41.995Z,100416.63
2022-08-29T02:32:09.639Z,100415.28
2022-08-29T02:34:37.276Z,100414.94
2022-08-29T02:37:04.981Z,100420.25
2022-08-29T02:39:34.135Z,100421.59
2022-08-29T02:42:01.725Z,100428.00
2022-08-29T02:44:29.522Z,100431.63
2022-08-29T02:46:57.223Z,100436.84
2022-08-29T02:49:25.524Z,100430.41
2022-08-29T02:51:53.274Z,100434.56
2022-08-29T02:54:20.932Z,100432.53
2022-08-29T02:56:48.576Z,100431.19
2022-08-29T02:59:16.877Z,100428.19
2022-08-29T03:01:44.518Z,100432.47
2022-08-29T03:04:12.236Z,100430.53
2022-08-29T03:06:39.819Z,100434.16
2022-08-29T03:09:08.038Z,100426.28
2022-08-29T03:11:35.714Z,100428.19
2022-08-29T03:14:03.335Z,100436.44
2022-08-29T03:16:31.484Z,100432.41
2022-08-29T03:18:59.289Z,100435.53
2022-08-29T03:21:26.897Z,100427.03
2022-08-29T03:23:55.531Z,100422.66
2022-08-29T03:26:23.807Z,100429.94
2022-08-29T03:28:51.536Z,100432.81
2022-08-29T03:31:19.365Z,100426.84
2022-08-29T03:33:47.155Z,100422.59
2022-08-29T03:36:15.053Z,100426.13
2022-08-29T03:38:43.775Z,100424.31
2022-08-29T03:41:11.601Z,100419.72
2022-08-29T03:43:39.276Z,100420.69
2022-08-29T03:46:07.338Z,100426.03
2022-08-29T03:48:35.453Z,100436.06
2022-08-29T03:51:03.190Z,100429.38
2022-08-29T03:53:30.872Z,100433.47
2022-08-29T03:55:58.596Z,100425.91
2022-08-29T03:58:26.481Z,100427.09
2022-08-29T04:00:54.174Z,100421.75
2022-08-29T04:03:30.817Z,100429.03
2022-08-29T04:05:58.647Z,100423.59
2022-08-29T04:08:26.319Z,100425.28
2022-08-29T04:10:54.218Z,100424.41
2022-08-29T04:13:22.098Z,100424.41
2022-08-29T04:15:50.411Z,100426.13
2022-08-29T04:18:21.683Z,100429.53
2022-08-29T04:20:51.914Z,100425.91
2022-08-29T04:23:19.572Z,100425.28
2022-08-29T04:25:47.310Z,100422.72
2022-08-29T04:28:15.200Z,100425.50
2022-08-29T04:30:45.488Z,100431.69
2022-08-29T04:33:22.870Z,100428.50
2022-08-29T04:35:50.730Z,100435.13
2022-08-29T04:38:18.882Z,100430.38
2022-08-29T04:40:46.680Z,100430.72
2022-08-29T04:43:14.482Z,100419.44
2022-08-29T04:45:42.142Z,100421.47
2022-08-29T04:48:11.037Z,100425.19
2022-08-29T04:50:39.176Z,100419.97
2022-08-29T04:53:06.839Z,100418.28
2022-08-29T04:55:34.435Z,100426.34
2022-08-29T04:58:04.016Z,100434.34
2022-08-29T05:00:31.854Z,100435.22
2022-08-29T05:03:00.321Z,100437.00
2022-08-29T05:05:28.063Z,100444.91
2022-08-29T05:07:55.776Z,100442.00
2022-08-29T05:10:23.797Z,100445.09
2022-08-29T05:12:51.678Z,100444.53
2022-08-29T05:15:19.287Z,100438.31
2022-08-29T05:17:46.968Z,100446.25
2022-08-29T05:20:14.998Z,100450.06
2022-08-29T05:22:43.316Z,100446.09
2022-08-29T05:25:14.436Z,100452.69
2022-08-29T05:27:45.202Z,100458.50
2022-08-29T05:30:12.803Z,100452.00
2022-08-29T05:32:40.656Z,100451.53
2022-08-29T05:35:08.325Z,100445.50
2022-08-29T05:37:35.966Z,100449.97
2022-08-29T05:40:04.181Z,100448.78
2022-08-29T05:42:31.868Z,100451.22
2022-08-29T05:44:59.542Z,100435.75
2022-08-29T05:47:27.472Z,100444.13
2022-08-29T05:49:55.071Z,100437.56
2022-08-29T05:52:22.838Z,100444.50
2022-08-29T05:54:50.848Z,100443.41
2022-08-29T05:57:19.476Z,100446.81
2022-08-29T05:59:47.346Z,100454.34
2022-08-29T06:02:15.061Z,100460.75
2022-08-29T06:04:42.829Z,100448.94
2022-08-29T06:07:13.628Z,100459.56
2022-08-29T06:09:41.343Z,100468.78
2022-08-29T06:12:09.011Z,100460.88
2022-08-29T06:14:36.795Z,100468.03
2022-08-29T06:17:04.705Z,100457.34
2022-08-29T06:19:35.112Z,100462.47
2022-08-29T06:22:03.575Z,100466.44
2022-08-29T06:24:37.459Z,100465.69
2022-08-29T06:27:05.131Z,100466.03
2022-08-29T06:29:32.809Z,100453.84
2022-08-29T06:32:10.860Z,100450.88
2022-08-29T06:34:38.574Z,100464.22
2022-08-29T06:37:06.247Z,100462.75
2022-08-29T06:39:35.487Z,100462.78
2022-08-29T06:42:03.087Z,100468.34
2022-08-29T06:44:31.570Z,100470.06
2022-08-29T06:46:59.309Z,100460.53
2022-08-29T06:49:27.845Z,100467.00
2022-08-29T06:51:57.982Z,100462.50
2022-08-29T06:54:28.220Z,100469.22
2022-08-29T06:56:56.099Z,100465.78
2022-08-29T06:59:23.848Z,100461.63
2022-08-29T07:01:51.617Z,100465.31
2022-08-29T07:04:21.018Z,100458.91
2022-08-29T07:06:49.139Z,100463.47
2022-08-29T07:09:16.839Z,100470.38
2022-08-29T07:11:44.611Z,100470.53
2022-08-29T07:14:12.290Z,100469.34
2022-08-29T07:16:40.313Z,100481.09
2022-08-29T07:19:07.913Z,100481.53
2022-08-29T07:21:35.818Z,100476.53
2022-08-29T07:24:03.726Z,100476.41
2022-08-29T07:26:31.350Z,100474.69
2022-08-29T07:28:59.057Z,100470.28
2022-08-29T07:31:30.849Z,100461.22
2022-08-29T07:34:02.398Z,100469.50
2022-08-29T07:36:31.139Z,100459.94
2022-08-29T07:38:58.819Z,100462.13
2022-08-29T07:41:26.621Z,100468.00
2022-08-29T07:43:54.307Z,100462.41
2022-08-29T07:46:22.328Z,100469.19
2022-08-29T07:48:51.299Z,100466.88
2022-08-29T07:51:18.910Z,100459.31
2022-08-29T07:53:46.918Z,100457.09
2022-08-29T07:56:14.584Z,100465.66
2022-08-29T07:58:42.814Z,100471.63
2022-08-29T08:01:14.827Z,100464.84
2022-08-29T08:03:49.078Z,100472.22
2022-08-29T08:06:17.634Z,100471.81
2022-08-29T08:08:45.536Z,100471.94
2022-08-29T08:11:13.211Z,100480.00
2022-08-29T08:13:40.902Z,100479.59
2022-08-29T08:16:08.911Z,100472.44
2022-08-29T08:18:37.328Z,100473.72
2022-08-29T08:21:05.037Z,100474.63
2022-08-29T08:23:33.489Z,100476.69
2022-08-29T08:26:01.206Z,100475.19
2022-08-29T08:28:30.672Z,100477.22
2022-08-29T08:31:02.297Z,100478.91
2022-08-29T08:33:35.011Z,100483.81
2022-08-29T08:36:02.893Z,100482.50
2022-08-29T08:38:31.741Z,100481.81
2022-08-29T08:40:59.916Z,100478.25
2022-08-29T08:43:27.797Z,100471.50
2022-08-29T08:45:55.965Z,100475.38
2022-08-29T08:48:23.576Z,100458.44
2022-08-29T08:50:54.600Z,100462.84
2022-08-29T08:53:23.081Z,100463.66
2022-08-29T08:55:50.988Z,100465.69
2022-08-29T08:58:18.618Z,100471.09
2022-08-29T09:00:56.403Z,100475.41
2022-08-29T09:03:25.292Z,100465.56
2022-08-29T09:05:52.892Z,100463.16
2022-08-29T09:08:20.481Z,100468.00
2022-08-29T09:10:48.860Z,100460.03
2022-08-29T09:13:16.697Z,100463.03
2022-08-29T09:15:44.661Z,100468.06
2022-08-29T09:18:13.679Z,100464.63
2022-08-29T09:20:41.819Z,100460.69
2022-08-29T09:23:10.903Z,100456.75
2022-08-29T09:25:38.589Z,100463.16
2022-08-29T09:28:06.275Z,100463.56
2022-08-29T09:30:34.585Z,100462.31
2022-08-29T09:33:02.930Z,100454.56
2022-08-29T09:35:31.666Z,100451.06
2022-08-29T09:38:02.232Z,100444.34
2022-08-29T09:40:30.234Z,100456.28
2022-08-29T09:42:57.966Z,100451.13
2022-08-29T09:45:25.806Z,100453.78
2022-08-29T09:47:53.407Z,100446.94
2022-08-29T09:50:21.400Z,100454.25
2022-08-29T09:52:49.112Z,100449.75
2022-08-29T09:55:16.781Z,100450.56
2022-08-29T09:57:44.553Z,100460.44
2022-08-29T10:00:13.274Z,100452.97
2022-08-29T10:02:41.235Z,100450.22
2022-08-29T10:05:13.417Z,100448.31
2022-08-29T10:07:41.478Z,100438.22
2022-08-29T10:10:09.341Z,100448.72
2022-08-29T10:12:37.098Z,100435.03
2022-08-29T10:15:05.219Z,100440.91
2022-08-29T10:17:54.513Z,100445.44
2022-08-29T10:20:24.425Z,100438.34
2022-08-29T10:22:52.098Z,100429.81
2022-08-29T10:25:20.958Z,100439.66
2022-08-29T10:27:49.409Z,100450.47
2022-08-29T10:30:17.105Z,100445.44
2022-08-29T10:32:44.792Z,100448.03
2022-08-29T10:35:12.980Z,100444.00
2022-08-29T10:37:41.032Z,100433.13
2022-08-29T10:40:08.681Z,100434.97
2022-08-29T10:42:37.295Z,100433.84
2022-08-29T10:45:05.262Z,100435.81
2022-08-29T10:47:32.893Z,100428.34
2022-08-29T10:50:00.675Z,100423.66
2022-08-29T10:52:28.362Z,100424.81
2022-08-29T10:54:56.407Z,100420.50
2022-08-29T10:57:24.088Z,100420.88
2022-08-29T10:59:51.917Z,100420.34
2022-08-29T11:02:19.587Z,100431.56
2022-08-29T11:04:47.368Z,100431.44
2022-08-29T11:07:16.373Z,100424.91
2022-08-29T11:09:44.375Z,100410.88
2022-08-29T11:12:17.678Z,100413.72
2022-08-29T11:14:45.791Z,100422.50
2022-08-29T11:17:13.493Z,100410.78
2022-08-29T11:19:41.950Z,100405.25
2022-08-29T11:22:10.038Z,100397.34
2022-08-29T11:24:38.135Z,100402.53
2022-08-29T11:27:05.835Z,100387.28
2022-08-29T11:29:33.522Z,100385.41
2022-08-29T11:32:01.216Z,100388.91
2022-08-29T11:34:28.903Z,100382.50
2022-08-29T11:36:56.607Z,100383.81
2022-08-29T11:39:24.522Z,100376.63
2022-08-29T11:41:56.404Z,100374.88
2022-08-29T11:44:25.902Z,100374.03
2022-08-29T11:46:56.860Z,100372.09
2022-08-29T11:49:24.854Z,100373.19
2022-08-29T11:51:52.996Z,100362.88
2022-08-29T11:54:24.676Z,100363.94
2022-08-29T11:56:52.796Z,100356.31
2022-08-29T11:59:20.683Z,100361.44
2022-08-29T12:01:48.439Z,100362.88
2022-08-29T12:04:16.192Z,100360.50
2022-08-29T12:06:44.226Z,100361.13
2022-08-29T12:09:13.793Z,100356.91
2022-08-29T12:11:42.143Z,100351.06
2022-08-29T12:14:09.931Z,100351.09
2022-08-29T12:16:37.671Z,100350.31
2022-08-29T12:19:05.614Z,100342.56
2022-08-29T12:21:33.326Z,100349.06
2022-08-29T12:24:00.997Z,100349.31
2022-08-29T12:26:29.130Z,100336.06
2022-08-29T12:28:56.840Z,100343.06
2022-08-29T12:31:24.692Z,100345.00
2022-08-29T12:33:52.469Z,100334.34
2022-08-29T12:36:20.954Z,100342.59
2022-08-29T12:38:50.341Z,100337.91
2022-08-29T12:41:18.519Z,100350.16
2022-08-29T12:43:46.897Z,100343.16
2022-08-29T12:46:15.315Z,100345.09
2022-08-29T12:48:43.072Z,100340.38
2022-08-29T12:51:13.984Z,100333.00
2022-08-29T12:53:42.248Z,100335.69
2022-08-29T12:56:10.209Z,100329.41
2022-08-29T12:58:37.891Z,100334.84
2022-08-29T13:01:05.845Z,100338.84
2022-08-29T13:03:33.604Z,100326.75
2022-08-29T13:06:01.394Z,100333.66
2022-08-29T13:08:29.302Z,100325.66
2022-08-29T13:10:57.295Z,100323.75
2022-08-29T13:13:25.000Z,100328.75
2022-08-29T13:15:52.668Z,100328.50
2022-08-29T13:18:20.540Z,100320.03
2022-08-29T13:20:48.552Z,100317.75
2022-08-29T13:23:16.685Z,100320.31
2022-08-29T13:25:44.485Z,100324.72
2022-08-29T13:28:12.326Z,100326.19
2022-08-29T13:30:41.997Z,100315.97
2022-08-29T13:33:16.677Z,100322.56
2022-08-29T13:35:54.920Z,100313.63
2022-08-29T13:38:24.793Z,100315.84
2022-08-29T13:40:52.860Z,100310.81
2022-08-29T13:43:20.569Z,100297.69
2022-08-29T13:45:48.224Z,100300.75
2022-08-29T13:48:18.525Z,100297.78
2022-08-29T13:53:15.401Z,100286.97
2022-08-29T13:55:43.672Z,100287.34
2022-08-29T13:58:11.425Z,100286.22
2022-08-29T14:00:39.532Z,100279.19
2022-08-29T14:03:09.621Z,100293.88
2022-08-29T14:05:37.344Z,100294.56
2022-08-29T14:08:05.117Z,100279.28
2022-08-29T14:10:33.125Z,100281.59
2022-08-29T14:13:01.105Z,100282.22
2022-08-29T14:15:28.868Z,100279.69
2022-08-29T14:17:56.653Z,100270.59
2022-08-29T14:20:24.681Z,100271.44
2022-08-29T14:22:52.380Z,100272.72
2022-08-29T14:25:20.058Z,100266.50
2022-08-29T14:27:48.550Z,100263.44
2022-08-29T14:30:16.288Z,100255.78
2022-08-29T14:32:44.110Z,100250.19
2022-08-29T14:35:25.958Z,100251.03
2022-08-29T14:37:55.579Z,100257.94
2022-08-29T14:40:23.375Z,100256.63
2022-08-29T14:42:53.368Z,100256.47
2022-08-29T14:45:21.193Z,100252.63
2022-08-29T14:47:49.164Z,100255.78
2022-08-29T14:50:16.837Z,100250.41
2022-08-29T14:52:44.663Z,100245.06
2022-08-29T14:55:12.344Z,100244.63
2022-08-29T14:57:40.343Z,100243.22
2022-08-29T15:00:09.502Z,100244.03
2022-08-29T15:02:37.388Z,100237.13
2022-08-29T15:05:05.033Z,100236.75
2022-08-29T15:07:32.909Z,100245.84
2022-08-29T15:10:00.909Z,100244.28
2022-08-29T15:12:29.234Z,100236.13
2022-08-29T15:14:56.890Z,100236.69
2022-08-29T15:17:24.744Z,100239.56
2022-08-29T15:22:40.512Z,100229.78
2022-08-29T15:25:08.509Z,100232.94
2022-08-29T15:27:36.172Z,100233.41
2022-08-29T15:30:04.494Z,100230.50
2022-08-29T15:32:32.211Z,100217.84
2022-08-29T15:34:59.915Z,100220.13
2022-08-29T15:37:27.673Z,100209.50
2022-08-29T15:39:55.911Z,100209.59
2022-08-29T15:42:29.118Z,100212.47
2022-08-29T15:44:56.910Z,100207.84
2022-08-29T15:47:26.381Z,100205.13
2022-08-29T15:49:54.158Z,100202.34
2022-08-29T15:52:21.885Z,100207.06
2022-08-29T15:54:49.864Z,100209.56
2022-08-29T15:57:17.616Z,100209.00
2022-08-29T16:00:00.465Z,100198.81
2022-08-29T16:02:28.250Z,100192.44
2022-08-29T16:04:57.306Z,100194.13
2022-08-29T16:07:28.782Z,100195.75
2022-08-29T16:09:57.371Z,100187.97
2022-08-29T16:12:25.152Z,100178.44
2022-08-29T16:15:01.225Z,100182.72
2022-08-29T16:17:31.582Z,100186.25
2022-08-29T16:19:59.634Z,100183.97
2022-08-29T16:22:27.926Z,100191.88
2022-08-29T16:24:55.559Z,100184.09
2022-08-29T16:27:24.629Z,100192.31
2022-08-29T16:29:52.569Z,100183.75
2022-08-29T16:32:20.323Z,100191.56
2022-08-29T16:34:47.942Z,100188.75
2022-08-29T16:37:15.859Z,100198.47
2022-08-29T16:39:43.898Z,100192.31
2022-08-29T16:42:12.372Z,100189.53
2022-08-29T16:44:40.165Z,100205.31
2022-08-29T16:47:07.908Z,100201.34
2022-08-29T16:49:37.695Z,100199.72
2022-08-29T16:52:05.506Z,100204.75
2022-08-29T16:54:33.264Z,100202.19
2022-08-29T16:57:01.033Z,100194.63
2022-08-29T16:59:29.920Z,100201.75
2022-08-29T17:01:57.775Z,100211.75
2022-08-29T17:04:25.544Z,100204.22
2022-08-29T17:06:53.259Z,100200.78
2022-08-29T17:09:19.984Z,100201.63
2022-08-29T17:11:46.482Z,100204.53
2022-08-29T17:14:12.959Z,100202.19
2022-08-29T17:16:40.714Z,100198.78
2022-08-29T17:19:08.871Z,100207.75
2022-08-29T17:21:36.627Z,100204.16
2022-08-29T17:24:06.835Z,100200.38
2022-08-29T17:26:34.726Z,100210.19
2022-08-29T17:29:02.535Z,100207.44
2022-08-29T17:31:31.075Z,100201.75
2022-08-29T17:34:06.882Z,100195.22
2022-08-29T17:36:35.212Z,100191.81
2022-08-29T17:39:03.272Z,100203.69
2022-08-29T17:41:32.174Z,100201.13
2022-08-29T17:44:00.647Z,100207.72
2022-08-29T17:46:29.610Z,100208.94
2022-08-29T17:48:57.594Z,100204.69
2022-08-29T17:51:25.260Z,100213.78
2022-08-29T17:53:53.346Z,100218.34
2022-08-29T17:56:21.108Z,100219.09
2022-08-29T17:58:48.906Z,100227.19
2022-08-29T18:01:17.114Z,100219.16
2022-08-29T18:03:45.258Z,100220.97
2022-08-29T18:06:14.405Z,100221.75
2022-08-29T18:08:47.787Z,100219.16
2022-08-29T18:11:16.071Z,100217.59
2022-08-29T18:13:43.801Z,100217.94
2022-08-29T18:16:12.034Z,100212.13
2022-08-29T18:18:41.357Z,100221.38
2022-08-29T18:21:09.091Z,100219.81
2022-08-29T18:23:36.868Z,100217.22
2022-08-29T18:26:04.889Z,100225.47
2022-08-29T18:28:32.589Z,100218.91
2022-08-29T18:31:00.336Z,100224.22
2022-08-29T18:33:38.792Z,100223.31
2022-08-29T18:36:15.788Z,100227.13
2022-08-29T18:38:43.530Z,100228.25
2022-08-29T18:41:11.661Z,100223.28
2022-08-29T18:43:39.442Z,100228.78
2022-08-29T18:46:09.601Z,100227.84
2022-08-29T18:48:37.594Z,100227.25
2022-08-29T18:51:05.396Z,100230.03
2022-08-29T18:53:33.164Z,100223.88
2022-08-29T18:56:00.870Z,100229.34
2022-08-29T18:58:28.689Z,100230.91
2022-08-29T19:00:56.817Z,100228.75
2022-08-29T19:03:24.689Z,100225.75
2022-08-29T19:05:52.604Z,100230.69
2022-08-29T19:08:20.410Z,100228.97
2022-08-29T19:10:48.491Z,100240.19
2022-08-29T19:13:17.846Z,100230.88
2022-08-29T19:15:47.503Z,100235.50
2022-08-29T19:18:15.326Z,100240.31
2022-08-29T19:21:00.731Z,100241.19
2022-08-29T19:23:28.471Z,100241.44
2022-08-29T19:25:56.555Z,100240.47
2022-08-29T19:28:25.448Z,100244.91
2022-08-29T19:30:53.402Z,100254.75
2022-08-29T19:33:21.370Z,100256.28
2022-08-29T19:35:58.428Z,100246.19
2022-08-29T19:38:27.855Z,100244.31
2022-08-29T19:40:57.389Z,100243.31
2022-08-29T19:43:25.466Z,100248.75
2022-08-29T19:45:53.420Z,100256.88
2022-08-29T19:48:21.239Z,100251.50
2022-08-29T19:50:48.944Z,100249.69
2022-08-29T19:53:17.102Z,100257.44
2022-08-29T19:55:55.195Z,100254.59
2022-08-29T19:58:25.026Z,100252.22
2022-08-29T20:01:00.040Z,100255.78
2022-08-29T20:03:34.328Z,100254.25
2022-08-29T20:06:07.563Z,100253.41
2022-08-29T20:08:36.192Z,100251.91
2022-08-29T20:11:04.004Z,100262.03
2022-08-29T20:13:35.756Z,100261.88
2022-08-29T20:16:03.796Z,100262.03
2022-08-29T20:18:31.639Z,100264.09
2022-08-29T20:20:59.469Z,100272.47
2022-08-29T20:23:27.682Z,100273.34
2022-08-29T20:25:56.899Z,100261.50
2022-08-29T20:28:24.666Z,100267.41
2022-08-29T20:30:52.445Z,100264.34
2022-08-29T20:33:20.262Z,100266.75
2022-08-29T20:36:06.603Z,100258.94
2022-08-29T20:38:34.628Z,100260.97
2022-08-29T20:41:02.621Z,100269.09
2022-08-29T20:43:30.326Z,100266.69
2022-08-29T20:46:00.033Z,100266.22
2022-08-29T20:48:31.157Z,100262.81
2022-08-29T20:50:59.339Z,100265.19
2022-08-29T20:53:31.750Z,100260.97
2022-08-29T20:56:00.649Z,100271.22
2022-08-29T20:58:28.999Z,100273.41
2022-08-29T21:00:56.835Z,100269.34
2022-08-29T21:03:42.258Z,100274.41
2022-08-29T21:06:09.996Z,100272.88
2022-08-29T21:08:41.818Z,100271.19
2022-08-29T21:11:10.362Z,100279.44
2022-08-29T21:13:43.528Z,100286.16
2022-08-29T21:16:11.488Z,100281.94
2022-08-29T21:18:39.463Z,100282.44
2022-08-29T21:21:07.272Z,100277.06
2022-08-29T21:23:35.381Z,100279.00
2022-08-29T21:26:03.399Z,100277.66
2022-08-29T21:28:32.504Z,100276.28
2022-08-29T21:31:00.292Z,100278.31
2022-08-29T21:33:28.072Z,100274.94
2022-08-29T21:35:59.904Z,100271.72
2022-08-29T21:38:27.593Z,100268.16
2022-08-29T21:40:58.820Z,100283.81
2022-08-29T21:43:26.730Z,100279.78
2022-08-29T21:45:54.485Z,100282.78
2022-08-29T21:48:22.217Z,100289.50
2022-08-29T21:50:49.917Z,100284.59
2022-08-29T21:53:17.869Z,100284.06
2022-08-29T21:55:46.983Z,100285.22
2022-08-29T21:58:15.075Z,100274.75
2022-08-29T22:00:43.164Z,100277.78
2022-08-29T22:03:12.472Z,100278.13
2022-08-29T22:05:43.662Z,100275.72
2022-08-29T22:08:13.885Z,100274.38
2022-08-29T22:10:41.805Z,100276.69
2022-08-29T22:13:09.513Z,100281.00
2022-08-29T22:15:55.116Z,100275.41
2022-08-29T22:18:23.658Z,100276.19
2022-08-29T22:20:54.941Z,100275.84
2022-08-29T22:23:24.694Z,100281.81
2022-08-29T22:25:52.736Z,100277.72
2022-08-29T22:28:20.484Z,100287.13
2022-08-29T22:30:48.828Z,100281.22
2022-08-29T22:33:16.959Z,100289.75
2022-08-29T22:35:45.983Z,100292.75
2022-08-29T22:38:13.735Z,100292.22
2022-08-29T22:40:41.537Z,100295.06
2022-08-29T22:43:09.458Z,100293.53
2022-08-29T22:45:37.355Z,100303.75
2022-08-29T22:48:06.452Z,100307.59
2022-08-29T22:50:34.137Z,100300.81
2022-08-29T22:53:02.381Z,100300.00
2022-08-29T22:57:57.702Z,100295.28
2022-08-29T23:00:25.313Z,100296.84
2022-08-29T23:02:53.089Z,100298.19
2022-08-29T23:05:21.085Z,100299.44
2022-08-29T23:07:48.835Z,100303.22
2022-08-29T23:10:16.857Z,100296.22
2022-08-29T23:12:44.559Z,100299.25
2022-08-29T23:15:13.480Z,100299.69
2022-08-29T23:17:41.216Z,100292.13
2022-08-29T23:20:09.400Z,100287.28
2022-08-29T23:22:39.357Z,100288.81
2022-08-29T23:25:10.940Z,100287.63
2022-08-29T23:27:38.648Z,100291.88
2022-08-29T23:30:06.268Z,100285.03
2022-08-29T23:32:33.932Z,100289.75
2022-08-29T23:35:01.881Z,100294.16
2022-08-29T23:37:29.592Z,100298.84
2022-08-29T23:39:58.260Z,100301.88
2022-08-29T23:42:26.130Z,100306.72
2022-08-29T23:44:55.162Z,100296.09
2022-08-29T23:47:22.757Z,100291.88
2022-08-29T23:49:50.531Z,100289.03
2022-08-29T23:52:18.143Z,100293.41
2022-08-29T23:54:46.081Z,100286.88
2022-08-29T23:57:13.684Z,100287.53
2022-08-29T23:59:58.711Z,100291.78
